This is the latest recevied weather packets stored in our database for station/object HP1MRA-15. If no packets are shown the sender has not sent any weather packets the latest 10 day(s).
| Time | Temp. | Humidity | Pressure | Rain* | Wind** | Luminosity | Snow |
|---|---|---|---|---|---|---|---|
| 1777671401 | 26.67° C | 83% | 998.4 hPa | 0 mm | - | - | - |
| 1777671102 | 26.67° C | 83% | 997.9 hPa | 0 mm | - | - | - |
| 1777670801 | 27.22° C | 81% | 997.8 hPa | 0 mm | - | - | - |
| 1777670501 | 27.78° C | 77% | 998.2 hPa | 0 mm | - | - | - |
| 1777670202 | 29.44° C | 72% | 998.6 hPa | 0 mm | - | - | - |
| 1777669901 | 30° C | 71% | 998.5 hPa | 0 mm | - | - | - |
| 1777669601 | 31.11° C | 69% | 998.3 hPa | 0 mm | - | - | - |
| 1777669301 | 32.22° C | 66% | 998 hPa | 0 mm | - | - | - |
| 1777669001 | 33.33° C | 64% | 997.5 hPa | 0 mm | - | - | - |
| 1777668701 | 33.89° C | 61% | 997.5 hPa | 0 mm | - | - | - |
| 1777668401 | 35° C | 59% | 997.3 hPa | 0 mm | - | - | - |
| 1777668101 | 35.56° C | 57% | 997.4 hPa | 0 mm | - | - | - |
| 1777667800 | 36.11° C | 55% | 997.4 hPa | 0 mm | - | - | - |
| 1777667501 | 36.67° C | 53% | 997.3 hPa | 0 mm | - | - | - |
| 1777667201 | 36.67° C | 53% | 997.3 hPa | 0 mm | - | - | - |
| 1777666900 | 36.67° C | 54% | 997.4 hPa | 0 mm | - | - | - |
| 1777666601 | 36.11° C | 53% | 997.4 hPa | 0 mm | - | - | - |
| 1777666302 | 36.11° C | 54% | 997.5 hPa | 0 mm | - | - | - |
| 1777666000 | 36.11° C | 54% | 997.7 hPa | 0 mm | - | - | - |
| 1777665701 | 35.56° C | 54% | 997.9 hPa | 0 mm | - | - | - |
| 1777665401 | 36.11° C | 54% | 997.9 hPa | 0 mm | - | - | - |
| 1777665100 | 36.11° C | 53% | 998 hPa | 0 mm | - | - | - |
| 1777664800 | 36.67° C | 52% | 997.9 hPa | 0 mm | - | - | - |
| 1777664501 | 37.22° C | 51% | 997.9 hPa | 0 mm | - | - | - |
| 1777664200 | 37.22° C | 50% | 997.9 hPa | 0 mm | - | - | - |
* Rain latest hour (hover to see other rain measurements)
** Current wind speed in m/s (hover to see current wind gust speed)